Time;durP1;ratioP1;P1;durP2;ratioP2;P2;SDS_P1;SDS_P2;PMS_P1;PMS_P2;Temp;Humidity;BMP_temperature;BMP_pressure;BME280_temperature;BME280_humidity;BME280_pressure;Samples;Min_cycle;Max_cycle;Signal;HPM_P1;HPM_P2
2022/07/27 03:01:37;;;;;;;2.65;1.25;;;27.50;37.40;;;;;;5367494;23;45232;-73
2022/07/27 03:04:03;;;;;;;3.90;1.70;;;27.40;37.40;;;;;;4897143;28;45375;-66
2022/07/27 03:06:30;;;;;;;2.83;1.60;;;27.40;37.40;;;;;;4898978;28;45063;-66
2022/07/27 03:08:56;;;;;;;2.53;1.58;;;27.50;37.40;;;;;;4883258;28;45810;-70
2022/07/27 03:11:22;;;;;;;3.50;1.60;;;27.50;37.40;;;;;;4897217;28;45228;-68
2022/07/27 03:13:48;;;;;;;2.80;1.60;;;27.40;37.40;;;;;;4924223;28;45172;-70
2022/07/27 03:16:15;;;;;;;2.65;1.58;;;27.40;37.50;;;;;;4939802;28;45518;-67
2022/07/27 03:18:41;;;;;;;3.75;1.85;;;27.40;37.50;;;;;;4940163;28;45473;-68
2022/07/27 03:21:07;;;;;;;3.40;2.33;;;27.40;37.60;;;;;;4940864;28;45531;-66
2022/07/27 03:23:34;;;;;;;4.90;2.88;;;27.30;37.70;;;;;;4929530;28;45280;-66
2022/07/27 03:26:00;;;;;;;5.75;2.90;;;27.30;37.70;;;;;;4936291;28;45280;-66
2022/07/27 03:28:26;;;;;;;5.07;2.78;;;27.30;37.80;;;;;;4935026;28;46394;-67
2022/07/27 03:30:53;;;;;;;4.72;2.60;;;27.30;37.70;;;;;;4935682;28;45034;-69
2022/07/27 03:33:19;;;;;;;6.63;2.63;;;27.30;37.80;;;;;;4924720;28;45103;-67
2022/07/27 03:35:45;;;;;;;6.13;2.30;;;27.30;37.80;;;;;;4940595;28;45475;-65
2022/07/27 03:38:11;;;;;;;8.15;3.28;;;27.30;37.90;;;;;;4940086;28;46073;-65
2022/07/27 03:40:39;;;;;;;9.68;5.13;;;27.30;37.90;;;;;;4934498;28;45378;-68
2022/07/27 03:43:05;;;;;;;12.45;5.80;;;27.30;38.00;;;;;;4914145;28;44699;-68
2022/07/27 03:45:31;;;;;;;16.60;7.22;;;27.20;38.00;;;;;;4921282;28;45207;-67
2022/07/27 03:47:58;;;;;;;13.32;5.32;;;27.20;38.10;;;;;;4939486;28;45074;-65
2022/07/27 03:50:24;;;;;;;13.70;5.55;;;27.10;38.10;;;;;;4938347;28;44982;-68
2022/07/27 03:52:50;;;;;;;12.65;5.82;;;27.10;38.40;;;;;;4942078;28;45417;-66
2022/07/27 03:55:18;;;;;;;15.65;6.85;;;27.10;38.20;;;;;;4922260;28;44815;-63
2022/07/27 03:57:44;;;;;;;12.32;5.50;;;27.20;38.20;;;;;;4937847;28;45187;-66
2022/07/27 04:00:12;;;;;;;9.77;4.38;;;27.20;38.20;;;;;;4936725;28;45550;-69
2022/07/27 04:02:39;;;;;;;7.93;3.90;;;27.10;38.30;;;;;;4927619;28;45488;-71
2022/07/27 04:05:06;;;;;;;5.75;3.50;;;27.10;38.40;;;;;;4938714;28;45576;-69
2022/07/27 04:07:32;;;;;;;5.35;3.47;;;27.00;38.50;;;;;;4916385;28;46041;-66
2022/07/27 04:09:59;;;;;;;7.88;3.20;;;27.00;38.50;;;;;;4942408;28;45520;-67
2022/07/27 04:12:25;;;;;;;5.78;3.17;;;27.00;38.60;;;;;;4919753;28;45423;-68
2022/07/27 04:14:51;;;;;;;6.10;2.60;;;27.00;38.50;;;;;;4916211;28;44958;-66
2022/07/27 04:17:18;;;;;;;4.38;2.28;;;27.00;38.60;;;;;;4939323;28;45885;-67
2022/07/27 04:19:44;;;;;;;7.57;2.50;;;27.00;38.70;;;;;;4906282;28;45452;-68
2022/07/27 04:22:10;;;;;;;4.43;2.33;;;26.90;38.80;;;;;;4942301;28;45314;-67
2022/07/27 04:24:37;;;;;;;3.95;2.15;;;26.90;38.80;;;;;;4943982;28;44778;-66
2022/07/27 04:27:03;;;;;;;4.07;2.28;;;26.90;38.90;;;;;;4942013;28;46028;-71
2022/07/27 04:29:29;;;;;;;2.88;1.67;;;26.90;38.90;;;;;;4942476;28;45460;-67
2022/07/27 04:31:55;;;;;;;2.60;1.90;;;26.90;39.10;;;;;;4941253;28;45202;-69
2022/07/27 04:34:22;;;;;;;3.63;1.80;;;26.90;39.10;;;;;;4934177;28;45018;-67
2022/07/27 04:36:49;;;;;;;4.97;1.80;;;26.90;39.30;;;;;;4940455;28;46086;-69
2022/07/27 04:39:15;;;;;;;3.65;2.08;;;26.90;39.20;;;;;;4926144;28;44936;-65
2022/07/27 04:41:41;;;;;;;4.75;1.60;;;26.90;39.30;;;;;;4945037;28;46192;-73
2022/07/27 04:44:08;;;;;;;2.25;1.63;;;26.90;39.40;;;;;;4923991;28;45309;-66
2022/07/27 04:46:34;;;;;;;2.90;1.65;;;26.90;39.40;;;;;;4938463;28;45950;-66
2022/07/27 04:49:00;;;;;;;3.00;1.65;;;26.90;39.50;;;;;;4927237;28;45023;-64
2022/07/27 04:51:26;;;;;;;2.88;1.50;;;26.90;39.50;;;;;;4940380;28;45180;-66
2022/07/27 04:53:52;;;;;;;1.70;1.48;;;26.90;39.50;;;;;;4942381;28;45543;-66
2022/07/27 04:56:19;;;;;;;2.35;1.45;;;26.90;40.10;;;;;;4939760;28;46404;-67
2022/07/27 04:58:45;;;;;;;2.55;1.40;;;27.00;39.60;;;;;;4921116;28;45462;-71
2022/07/27 05:01:11;;;;;;;1.38;1.27;;;26.90;39.60;;;;;;4935189;28;45472;-67
2022/07/27 05:03:39;;;;;;;2.80;1.67;;;26.90;39.80;;;;;;4918764;28;45359;-67
2022/07/27 05:06:05;;;;;;;3.75;1.23;;;26.90;39.70;;;;;;4905532;28;47170;-68
2022/07/27 05:08:32;;;;;;;5.97;1.55;;;27.00;39.80;;;;;;4939694;28;45553;-68
2022/07/27 05:10:58;;;;;;;5.72;1.58;;;26.90;39.90;;;;;;4941396;28;45261;-68
2022/07/27 05:13:24;;;;;;;3.67;1.20;;;26.90;40.00;;;;;;4939469;28;45891;-70
2022/07/27 05:15:51;;;;;;;2.85;1.23;;;26.90;40.00;;;;;;4945527;28;46077;-67
2022/07/27 05:18:18;;;;;;;3.50;1.30;;;26.90;40.10;;;;;;4923206;28;45552;-66
2022/07/27 05:20:44;;;;;;;3.92;1.05;;;26.90;40.30;;;;;;4938947;28;45465;-67
2022/07/27 05:23:10;;;;;;;1.42;1.00;;;26.90;40.30;;;;;;4942942;28;46310;-68
2022/07/27 05:25:37;;;;;;;2.45;1.30;;;26.90;40.40;;;;;;4937333;28;45024;-68
2022/07/27 05:28:04;;;;;;;3.67;1.00;;;26.90;40.40;;;;;;4923522;28;44931;-68
2022/07/27 05:30:33;;;;;;;3.13;1.20;;;26.90;40.30;;;;;;4935987;28;45666;-72
2022/07/27 05:32:59;;;;;;;3.17;1.10;;;27.10;40.30;;;;;;4939212;28;45558;-68
2022/07/27 05:35:26;;;;;;;1.35;1.00;;;27.80;39.40;;;;;;4939102;28;45915;-69
2022/07/27 05:37:52;;;;;;;1.40;0.80;;;28.50;38.10;;;;;;4943182;28;44660;-67
2022/07/27 05:40:18;;;;;;;7.10;1.27;;;29.00;37.20;;;;;;4922916;28;44714;-66
2022/07/27 05:42:45;;;;;;;2.38;0.90;;;29.40;36.70;;;;;;4946875;28;45293;-68
2022/07/27 05:45:11;;;;;;;3.60;0.80;;;29.50;36.50;;;;;;4944395;28;47246;-67
2022/07/27 05:47:38;;;;;;;2.60;0.80;;;28.60;37.50;;;;;;4941018;28;45415;-68
2022/07/27 05:50:05;;;;;;;1.65;1.05;;;28.10;38.60;;;;;;4944484;28;45225;-72
2022/07/27 05:52:32;;;;;;;1.85;1.25;;;27.70;39.30;;;;;;4941780;28;45182;-71
2022/07/27 05:54:58;;;;;;;3.40;1.20;;;27.50;39.80;;;;;;4922257;28;45117;-67
2022/07/27 05:57:24;;;;;;;3.05;1.10;;;27.30;40.10;;;;;;4940668;28;46661;-65
2022/07/27 05:59:53;;;;;;;;;;;27.30;40.30;;;;;;4938140;28;45241;-62
2022/07/27 06:02:20;;;;;;;2.58;1.30;;;27.20;41.10;;;;;;4935633;28;45151;-61
2022/07/27 06:04:46;;;;;;;1.50;1.15;;;27.20;40.50;;;;;;4943142;28;46015;-66
2022/07/27 06:09:58;;;;;;;2.00;1.00;;;27.20;40.70;;;;;;4943993;28;44663;-62
2022/07/27 06:12:24;;;;;;;1.88;1.00;;;27.10;40.60;;;;;;4940370;28;45593;-66
2022/07/27 06:14:50;;;;;;;2.22;1.08;;;27.20;40.70;;;;;;4945968;28;46038;-63
2022/07/27 06:17:16;;;;;;;1.15;1.00;;;27.20;40.80;;;;;;4939083;28;44732;-63
2022/07/27 06:19:43;;;;;;;3.22;0.90;;;27.20;40.80;;;;;;4934528;28;45332;-63
2022/07/27 06:22:09;;;;;;;2.10;1.10;;;27.20;40.80;;;;;;4935555;28;45653;-66
2022/07/27 06:24:35;;;;;;;2.70;1.00;;;27.20;40.80;;;;;;4939105;28;45218;-61
2022/07/27 06:27:02;;;;;;;3.33;0.88;;;27.20;40.80;;;;;;4925735;28;45217;-65
2022/07/27 06:29:28;;;;;;;2.25;0.88;;;27.20;40.80;;;;;;4947235;28;45428;-65
2022/07/27 06:31:54;;;;;;;3.60;0.90;;;27.30;40.90;;;;;;4922173;28;45913;-64
2022/07/27 06:34:21;;;;;;;2.05;1.02;;;27.30;40.90;;;;;;4941384;28;46014;-65
2022/07/27 06:36:47;;;;;;;1.48;0.95;;;27.30;40.90;;;;;;4935710;28;45325;-64
2022/07/27 06:39:13;;;;;;;2.00;0.88;;;27.30;40.90;;;;;;4942838;28;44899;-63
2022/07/27 06:41:39;;;;;;;2.20;0.80;;;27.30;40.90;;;;;;4937749;28;44774;-64
2022/07/27 06:44:06;;;;;;;1.92;0.70;;;27.30;40.90;;;;;;4935051;28;46228;-66
2022/07/27 06:46:32;;;;;;;2.75;0.80;;;27.30;40.90;;;;;;4939619;28;45258;-62
2022/07/27 06:48:58;;;;;;;1.15;0.60;;;27.40;40.90;;;;;;4937178;28;45453;-63
2022/07/27 06:51:24;;;;;;;1.20;0.88;;;27.40;40.90;;;;;;4943560;28;45264;-65
2022/07/27 06:53:52;;;;;;;2.03;0.65;;;27.40;40.80;;;;;;4941574;28;45979;-67
2022/07/27 06:56:19;;;;;;;4.40;0.80;;;27.50;40.80;;;;;;4939478;28;45141;-64
2022/07/27 06:58:45;;;;;;;1.52;0.70;;;27.50;40.80;;;;;;4939774;28;45453;-69
2022/07/27 07:01:13;;;;;;;1.90;0.98;;;27.60;40.70;;;;;;4943167;28;44973;-62
2022/07/27 07:03:39;;;;;;;1.40;0.93;;;27.60;40.80;;;;;;4940843;28;45580;-65
2022/07/27 07:06:06;;;;;;;3.30;0.90;;;27.60;40.70;;;;;;4923205;28;45040;-65
2022/07/27 07:08:32;;;;;;;1.67;0.90;;;27.60;40.70;;;;;;4938589;28;45304;-63
2022/07/27 07:10:58;;;;;;;1.80;1.23;;;27.60;40.70;;;;;;4940119;28;45052;-64
2022/07/27 07:13:24;;;;;;;1.65;0.80;;;27.70;40.70;;;;;;4937462;28;46265;-65
2022/07/27 07:15:51;;;;;;;1.75;0.95;;;27.70;40.60;;;;;;4937224;28;45545;-65
2022/07/27 07:18:17;;;;;;;1.35;0.88;;;27.60;40.50;;;;;;4931896;28;45218;-65
2022/07/27 07:20:43;;;;;;;1.70;0.98;;;27.60;40.50;;;;;;4919694;28;45232;-66
2022/07/27 07:23:10;;;;;;;1.27;0.82;;;27.70;40.60;;;;;;4941867;28;46303;-68
2022/07/27 07:25:36;;;;;;;2.03;1.00;;;27.70;40.60;;;;;;4924514;28;45260;-67
2022/07/27 07:28:03;;;;;;;1.50;0.90;;;27.70;40.60;;;;;;4921875;28;45027;-66
2022/07/27 07:30:30;;;;;;;2.97;1.02;;;27.70;40.50;;;;;;4917775;28;45304;-70
2022/07/27 07:32:56;;;;;;;2.22;1.35;;;27.70;40.50;;;;;;4935501;28;45463;-66
2022/07/27 07:35:22;;;;;;;1.55;0.90;;;27.70;40.60;;;;;;4937296;28;45227;-65
2022/07/27 07:37:49;;;;;;;2.78;1.05;;;27.80;40.60;;;;;;4940370;28;45004;-67
2022/07/27 07:40:15;;;;;;;5.75;1.30;;;27.80;40.50;;;;;;4938009;28;45390;-71
2022/07/27 07:42:58;;;;;;;2.53;0.98;;;27.80;40.50;;;;;;4922363;28;46169;-76
2022/07/27 07:45:25;;;;;;;1.60;0.90;;;27.70;40.70;;;;;;4919201;28;45485;-68
2022/07/27 07:47:52;;;;;;;3.67;1.00;;;27.70;40.50;;;;;;4937941;28;45449;-66
2022/07/27 07:50:18;;;;;;;6.32;1.10;;;27.70;40.50;;;;;;4921587;28;45297;-69
2022/07/27 07:52:47;;;;;;;2.33;0.90;;;27.70;40.60;;;;;;4924557;28;45371;-67
2022/07/27 07:55:13;;;;;;;2.22;0.98;;;27.70;40.50;;;;;;4921423;28;45008;-66
2022/07/27 07:57:39;;;;;;;1.50;1.05;;;27.70;40.40;;;;;;4927125;28;45206;-67
2022/07/27 08:00:08;;;;;;;2.85;1.30;;;27.70;40.40;;;;;;4934940;28;45659;-69
2022/07/27 08:02:45;;;;;;;2.45;1.00;;;27.70;40.40;;;;;;4922504;28;47083;-68
2022/07/27 08:05:11;;;;;;;2.85;0.98;;;27.70;40.60;;;;;;4919696;28;45164;-69
2022/07/27 08:07:38;;;;;;;3.65;0.98;;;27.70;40.40;;;;;;4936325;28;45334;-67
2022/07/27 08:10:06;;;;;;;1.17;0.93;;;27.80;40.40;;;;;;4938103;28;45581;-69
2022/07/27 08:12:34;;;;;;;4.40;0.88;;;27.80;40.40;;;;;;4915868;28;46348;-67
2022/07/27 08:15:00;;;;;;;2.78;1.00;;;27.80;40.40;;;;;;4941889;28;44876;-66
2022/07/27 08:17:26;;;;;;;1.35;0.88;;;27.80;40.30;;;;;;4940587;28;45706;-68
2022/07/27 08:19:53;;;;;;;0.90;0.80;;;27.80;40.40;;;;;;4934999;28;45181;-64
2022/07/27 08:22:19;;;;;;;2.78;1.45;;;27.80;40.40;;;;;;4938479;28;46015;-67
2022/07/27 08:24:44;;;;;;;2.45;1.30;;;27.80;40.40;;;;;;4925671;28;45546;-68
2022/07/27 08:27:10;;;;;;;5.10;1.50;;;27.80;40.40;;;;;;4934920;28;45214;-70
2022/07/27 08:29:36;;;;;;;3.55;1.83;;;27.90;40.40;;;;;;4939275;28;45580;-72
2022/07/27 08:32:01;;;;;;;4.25;1.55;;;27.90;40.50;;;;;;4905523;28;46309;-66
2022/07/27 08:34:27;;;;;;;3.50;1.42;;;27.80;40.50;;;;;;4900043;28;45377;-68
2022/07/27 08:36:52;;;;;;;4.15;1.40;;;27.80;40.50;;;;;;4938847;28;45259;-68
2022/07/27 08:39:18;;;;;;;3.75;1.35;;;27.80;40.60;;;;;;4944718;28;45097;-67
2022/07/27 08:41:43;;;;;;;2.33;1.20;;;27.80;40.50;;;;;;4943780;28;45859;-67
2022/07/27 08:44:11;;;;;;;2.97;1.10;;;27.80;40.40;;;;;;4907732;28;45686;-67
2022/07/27 08:46:39;;;;;;;2.20;1.27;;;27.90;40.50;;;;;;4920195;28;45522;-67
2022/07/27 08:49:06;;;;;;;2.17;1.05;;;27.90;40.60;;;;;;4921941;28;44839;-67
2022/07/27 08:51:31;;;;;;;6.40;1.35;;;27.90;40.60;;;;;;4920833;28;45906;-66
2022/07/27 08:53:57;;;;;;;3.35;1.13;;;27.90;40.60;;;;;;4926798;28;44973;-64
2022/07/27 08:56:23;;;;;;;3.42;1.13;;;27.90;40.60;;;;;;4921555;28;45611;-66
2022/07/27 08:58:48;;;;;;;1.63;1.20;;;28.00;40.70;;;;;;4918709;28;45529;-66
2022/07/27 09:01:14;;;;;;;2.78;1.30;;;28.00;40.80;;;;;;4914467;28;45966;-67
2022/07/27 09:03:39;;;;;;;3.38;1.20;;;27.90;40.70;;;;;;4927459;28;45733;-70
2022/07/27 09:06:05;;;;;;;2.03;0.98;;;27.90;40.70;;;;;;4913684;28;45204;-65
2022/07/27 09:08:32;;;;;;;4.97;1.15;;;27.90;40.80;;;;;;4930931;28;45219;-69
2022/07/27 09:10:58;;;;;;;1.30;0.90;;;27.90;40.80;;;;;;4918243;28;46249;-64
2022/07/27 09:13:25;;;;;;;5.38;1.27;;;27.90;40.90;;;;;;4904223;28;45581;-69
2022/07/27 09:15:55;;;;;;;4.63;1.17;;;27.90;41.00;;;;;;4941121;28;45544;-67
2022/07/27 09:18:26;;;;;;;1.77;0.90;;;27.90;41.00;;;;;;4919789;28;45968;-69
2022/07/27 09:21:10;;;;;;;1.42;0.98;;;27.90;41.10;;;;;;4917556;28;46786;-67
2022/07/27 09:23:40;;;;;;;1.30;0.85;;;28.00;41.30;;;;;;4937448;28;45602;-72
2022/07/27 09:26:09;;;;;;;4.22;1.00;;;28.00;41.00;;;;;;4941302;28;45197;-67
2022/07/27 09:28:35;;;;;;;3.97;1.23;;;28.00;41.00;;;;;;4933946;28;45555;-68
2022/07/27 09:31:06;;;;;;;4.25;1.35;;;28.00;41.00;;;;;;4916420;28;45687;-66
2022/07/27 09:33:40;;;;;;;4.07;1.08;;;28.00;41.00;;;;;;4920378;28;45447;-67
2022/07/27 09:36:06;;;;;;;4.32;1.27;;;28.00;40.90;;;;;;4907825;28;45190;-66
2022/07/27 09:38:31;;;;;;;1.83;1.00;;;28.00;41.10;;;;;;4920141;28;45249;-66
2022/07/27 09:40:58;;;;;;;1.92;1.20;;;28.00;40.90;;;;;;4931760;28;45518;-70
2022/07/27 09:43:24;;;;;;;1.58;0.90;;;28.00;40.90;;;;;;4940174;28;45424;-65
2022/07/27 09:45:49;;;;;;;2.13;0.85;;;28.00;40.80;;;;;;4921831;28;45629;-68
2022/07/27 09:48:16;;;;;;;2.22;1.00;;;28.10;40.90;;;;;;4939456;28;45344;-67
2022/07/27 09:51:03;;;;;;;2.05;0.95;;;28.00;40.80;;;;;;4935897;28;45993;-66
2022/07/27 09:53:31;;;;;;;1.65;0.80;;;28.10;41.10;;;;;;4933540;28;44955;-69
2022/07/27 09:56:08;;;;;;;3.00;0.85;;;28.10;41.30;;;;;;4916888;28;46481;-68
2022/07/27 09:58:46;;;;;;;3.15;0.80;;;28.10;40.90;;;;;;4939484;28;45209;-71
2022/07/27 10:01:16;;;;;;;1.33;0.80;;;28.10;40.90;;;;;;4911065;28;46152;-67
2022/07/27 10:03:43;;;;;;;3.00;0.90;;;28.10;40.80;;;;;;4925247;28;45740;-73
2022/07/27 10:06:09;;;;;;;4.13;0.98;;;28.10;40.70;;;;;;4919760;28;45461;-64
2022/07/27 10:08:40;;;;;;;2.58;0.80;;;28.10;40.50;;;;;;4936400;28;45260;-66
2022/07/27 10:11:06;;;;;;;2.08;0.80;;;28.20;40.50;;;;;;4933118;28;45871;-66
2022/07/27 10:13:32;;;;;;;1.30;0.70;;;28.20;40.50;;;;;;4939105;28;45326;-65
2022/07/27 10:15:57;;;;;;;6.57;0.80;;;28.10;40.50;;;;;;4933709;28;45524;-65
2022/07/27 10:19:00;;;;;;;7.40;0.88;;;28.20;40.50;;;;;;4901598;28;45301;-63
2022/07/27 10:21:26;;;;;;;1.48;0.70;;;28.20;40.60;;;;;;4916426;28;45308;-66
2022/07/27 10:23:58;;;;;;;5.15;1.10;;;28.20;40.40;;;;;;4936982;28;44721;-62
2022/07/27 10:26:23;;;;;;;4.25;0.75;;;28.20;40.40;;;;;;4917736;28;45409;-68
2022/07/27 10:28:53;;;;;;;3.67;0.90;;;28.20;40.30;;;;;;4938838;28;45533;-66
2022/07/27 10:31:23;;;;;;;3.83;0.98;;;28.20;40.20;;;;;;4935555;28;45129;-65
2022/07/27 10:33:53;;;;;;;2.13;0.70;;;28.20;40.70;;;;;;4934690;28;45315;-71
2022/07/27 10:36:22;;;;;;;2.92;1.08;;;28.20;40.10;;;;;;4939006;28;45583;-65
2022/07/27 10:38:55;;;;;;;1.52;0.80;;;28.10;40.00;;;;;;4935717;28;45322;-67
2022/07/27 10:41:27;;;;;;;2.15;0.93;;;28.10;40.00;;;;;;4918668;28;46026;-66
2022/07/27 10:44:11;;;;;;;3.65;0.55;;;28.20;40.00;;;;;;4938410;28;45221;-68
2022/07/27 10:46:42;;;;;;;3.88;1.00;;;28.20;40.00;;;;;;4935079;28;45512;-66
2022/07/27 10:49:17;;;;;;;1.88;0.63;;;28.20;39.90;;;;;;4901082;28;45382;-64
2022/07/27 10:51:42;;;;;;;1.13;0.90;;;28.20;39.80;;;;;;4918049;28;47256;-66
2022/07/27 10:54:21;;;;;;;1.23;0.80;;;28.20;39.80;;;;;;4932795;28;46259;-68
2022/07/27 10:56:48;;;;;;;2.67;0.70;;;28.20;39.70;;;;;;4912539;28;45635;-66
2022/07/27 10:59:14;;;;;;;1.65;1.00;;;28.20;39.60;;;;;;4936867;28;45667;-71
2022/07/27 11:01:57;;;;;;;3.35;0.95;;;28.30;39.60;;;;;;4934341;28;45905;-67
2022/07/27 11:04:23;;;;;;;2.90;0.68;;;28.30;39.50;;;;;;4934362;28;45014;-71
2022/07/27 11:06:54;;;;;;;1.23;0.95;;;28.30;39.50;;;;;;4938106;28;45461;-68
2022/07/27 11:09:19;;;;;;;1.00;0.73;;;28.30;39.50;;;;;;4900257;28;45790;-67
2022/07/27 11:11:45;;;;;;;1.65;0.80;;;28.30;39.40;;;;;;4904780;28;45333;-66
2022/07/27 11:14:10;;;;;;;4.22;1.00;;;28.30;39.30;;;;;;4888273;28;45348;-67
2022/07/27 11:16:36;;;;;;;2.60;1.05;;;28.30;39.30;;;;;;4917894;28;45416;-74
2022/07/27 11:19:04;;;;;;;2.55;1.00;;;28.40;39.40;;;;;;4936281;28;44655;-67
2022/07/27 11:21:33;;;;;;;1.58;0.90;;;28.40;39.30;;;;;;4936110;28;46217;-67
2022/07/27 11:24:04;;;;;;;0.70;0.65;;;28.40;39.20;;;;;;4937835;28;44975;-67
2022/07/27 11:26:36;;;;;;;3.15;0.85;;;28.40;39.10;;;;;;4935860;28;44837;-65
2022/07/27 11:29:05;;;;;;;2.05;1.00;;;28.40;39.00;;;;;;4914849;28;45622;-66
2022/07/27 11:31:30;;;;;;;5.20;1.20;;;28.40;39.00;;;;;;4935351;28;45909;-65
2022/07/27 11:33:57;;;;;;;2.22;1.13;;;28.50;38.90;;;;;;4935640;28;45692;-67
2022/07/27 11:36:34;;;;;;;1.88;1.20;;;28.50;38.80;;;;;;4917813;28;44929;-70
2022/07/27 11:39:00;;;;;;;2.80;1.10;;;28.50;38.60;;;;;;4904412;28;45354;-66
2022/07/27 11:41:30;;;;;;;3.03;1.08;;;28.50;38.50;;;;;;4937853;28;45494;-67
2022/07/27 11:44:03;;;;;;;2.83;0.98;;;28.50;38.50;;;;;;4935331;28;45411;-66
2022/07/27 11:46:31;;;;;;;1.30;0.85;;;28.60;38.40;;;;;;4933241;28;44979;-66
2022/07/27 11:49:07;;;;;;;2.38;1.00;;;28.60;38.40;;;;;;4933195;28;45290;-72
2022/07/27 11:51:34;;;;;;;2.08;0.93;;;28.60;38.20;;;;;;4920334;28;45004;-65
2022/07/27 11:54:16;;;;;;;3.88;1.33;;;28.60;38.20;;;;;;4919585;28;45297;-69
2022/07/27 11:56:42;;;;;;;2.00;0.82;;;28.60;38.10;;;;;;4920949;28;45544;-65
2022/07/27 11:59:13;;;;;;;2.00;0.80;;;28.60;38.10;;;;;;4918681;28;45459;-67
2022/07/27 12:01:41;;;;;;;2.17;0.90;;;28.70;38.10;;;;;;4917733;28;46180;-64
2022/07/27 12:04:29;;;;;;;5.30;1.00;;;28.70;38.00;;;;;;4920105;28;45641;-71
2022/07/27 12:07:03;;;;;;;1.70;0.80;;;28.70;37.90;;;;;;4925981;28;44805;-65
2022/07/27 12:09:30;;;;;;;2.17;0.90;;;28.70;37.80;;;;;;4932525;28;45554;-68
2022/07/27 12:12:09;;;;;;;2.22;1.00;;;28.70;37.90;;;;;;4934219;28;45543;-67
2022/07/27 12:14:36;;;;;;;1.95;0.70;;;28.80;37.70;;;;;;4932913;28;44978;-68
2022/07/27 12:17:10;;;;;;;1.08;0.90;;;28.80;37.80;;;;;;4935205;28;45497;-67
2022/07/27 12:19:36;;;;;;;1.00;0.65;;;28.80;37.60;;;;;;4916945;28;46104;-70
2022/07/27 12:22:02;;;;;;;1.35;0.90;;;28.80;37.70;;;;;;4933472;28;45831;-69
2022/07/27 12:24:32;;;;;;;1.90;0.95;;;28.90;37.70;;;;;;4934090;28;45552;-66
2022/07/27 12:27:03;;;;;;;2.22;0.95;;;28.90;37.50;;;;;;4917157;28;45265;-67
2022/07/27 12:29:28;;;;;;;1.95;0.88;;;28.90;37.60;;;;;;4915721;28;45324;-74
2022/07/27 12:32:02;;;;;;;4.15;0.73;;;29.00;37.60;;;;;;4932272;28;46131;-67
2022/07/27 12:34:33;;;;;;;1.65;0.80;;;29.00;37.50;;;;;;4916977;28;45137;-65
2022/07/27 12:36:58;;;;;;;2.47;1.00;;;29.00;37.40;;;;;;4915437;28;45329;-66
2022/07/27 12:39:27;;;;;;;1.17;0.68;;;29.00;37.30;;;;;;4935684;28;45352;-68
2022/07/27 12:42:04;;;;;;;1.48;0.65;;;29.00;37.30;;;;;;4917897;28;46973;-67
2022/07/27 12:44:34;;;;;;;1.90;0.80;;;29.10;36.70;;;;;;4924170;28;45078;-70
2022/07/27 12:47:00;;;;;;;1.52;0.60;;;29.10;36.90;;;;;;4934886;28;45015;-72
2022/07/27 12:49:33;;;;;;;0.68;0.65;;;29.10;36.90;;;;;;4903624;28;45304;-68
2022/07/27 12:52:06;;;;;;;0.88;0.70;;;29.10;36.80;;;;;;4936243;28;47260;-67
2022/07/27 12:54:31;;;;;;;0.90;0.85;;;29.20;36.80;;;;;;4937907;28;45226;-68
2022/07/27 12:56:57;;;;;;;2.55;0.80;;;29.20;36.90;;;;;;4922263;28;45421;-67
2022/07/27 12:59:23;;;;;;;2.38;0.80;;;29.20;36.80;;;;;;4921645;28;44749;-66
2022/07/27 13:01:50;;;;;;;1.10;0.73;;;29.20;36.80;;;;;;4936698;28;45626;-67
2022/07/27 13:04:15;;;;;;;2.85;1.10;;;29.20;36.80;;;;;;4925252;28;45390;-69
2022/07/27 13:06:41;;;;;;;3.50;0.75;;;29.20;36.70;;;;;;4939295;28;45683;-67
2022/07/27 13:09:06;;;;;;;2.60;1.10;;;29.30;36.40;;;;;;4921724;28;44834;-69
2022/07/27 13:11:32;;;;;;;1.95;1.02;;;29.30;36.10;;;;;;4919980;28;46046;-66
2022/07/27 13:13:58;;;;;;;2.20;1.20;;;29.30;36.00;;;;;;4938647;28;45328;-66
2022/07/27 13:16:24;;;;;;;4.13;0.98;;;29.30;35.80;;;;;;4920261;28;45326;-70
2022/07/27 13:18:49;;;;;;;2.47;1.02;;;29.30;35.70;;;;;;4938273;28;45396;-68
2022/07/27 13:21:15;;;;;;;3.47;0.90;;;29.30;35.50;;;;;;4939439;28;45388;-68
2022/07/27 13:23:40;;;;;;;1.45;0.80;;;29.40;35.40;;;;;;4938116;28;45534;-66
2022/07/27 13:26:06;;;;;;;3.40;0.82;;;29.40;35.50;;;;;;4930108;28;45214;-67
2022/07/27 13:28:31;;;;;;;2.08;0.98;;;29.40;35.30;;;;;;4937224;28;45202;-66
2022/07/27 13:30:57;;;;;;;5.65;1.17;;;29.40;35.20;;;;;;4934639;28;45292;-65
2022/07/27 13:33:23;;;;;;;4.00;0.80;;;29.50;35.20;;;;;;4936570;28;45179;-65
2022/07/27 13:35:48;;;;;;;2.92;0.80;;;29.50;35.20;;;;;;4938100;28;45225;-68
2022/07/27 13:38:14;;;;;;;2.03;0.77;;;29.50;35.10;;;;;;4938930;28;45281;-67
2022/07/27 13:40:41;;;;;;;4.00;0.90;;;29.50;35.00;;;;;;4934920;28;45944;-69
2022/07/27 13:43:07;;;;;;;4.40;0.85;;;29.50;35.00;;;;;;4920215;28;45573;-67
2022/07/27 13:45:32;;;;;;;1.17;0.60;;;29.50;34.90;;;;;;4942208;28;45355;-67
2022/07/27 13:47:58;;;;;;;6.70;0.80;;;29.50;35.00;;;;;;4920572;28;45619;-64
2022/07/27 13:50:24;;;;;;;3.78;1.20;;;29.50;34.70;;;;;;4935627;28;45349;-69
2022/07/27 13:52:49;;;;;;;5.35;0.85;;;29.50;34.60;;;;;;4938205;28;45425;-70
2022/07/27 13:55:15;;;;;;;3.67;0.95;;;29.50;34.60;;;;;;4921535;28;44696;-65
2022/07/27 13:57:41;;;;;;;1.90;0.75;;;29.50;34.50;;;;;;4917137;28;45631;-70
2022/07/27 14:00:07;;;;;;;2.45;0.82;;;29.60;34.50;;;;;;4935319;28;45584;-63
2022/07/27 14:02:32;;;;;;;3.03;0.75;;;29.60;34.50;;;;;;4934828;28;45369;-69
2022/07/27 14:04:58;;;;;;;1.95;0.75;;;29.60;34.50;;;;;;4930273;28;45185;-66
2022/07/27 14:07:23;;;;;;;2.55;0.80;;;29.60;34.40;;;;;;4936111;28;45406;-68
2022/07/27 14:12:33;;;;;;;2.22;0.80;;;29.70;34.20;;;;;;4932223;28;45118;-64
2022/07/27 14:14:59;;;;;;;3.20;0.98;;;29.70;34.30;;;;;;4938216;28;45195;-65
2022/07/27 14:17:24;;;;;;;5.38;0.70;;;29.70;34.20;;;;;;4942093;28;45456;-63
2022/07/27 14:19:50;;;;;;;1.05;0.80;;;29.70;34.10;;;;;;4933958;28;46346;-66
2022/07/27 14:22:15;;;;;;;3.92;1.17;;;29.80;34.10;;;;;;4936351;28;45544;-66
2022/07/27 14:24:41;;;;;;;3.42;1.02;;;29.80;33.90;;;;;;4937437;28;45551;-64
2022/07/27 14:27:07;;;;;;;1.50;0.82;;;29.80;33.90;;;;;;4936412;28;45528;-66
2022/07/27 14:29:33;;;;;;;1.38;0.82;;;29.80;33.80;;;;;;4935230;28;45341;-62
2022/07/27 14:31:59;;;;;;;7.68;0.93;;;29.80;33.90;;;;;;4929478;28;44683;-64
2022/07/27 14:34:25;;;;;;;1.52;0.88;;;29.80;33.70;;;;;;4936972;28;45691;-70
2022/07/27 14:36:51;;;;;;;2.15;1.00;;;29.80;33.60;;;;;;4939294;28;45317;-68
2022/07/27 14:39:16;;;;;;;2.28;0.80;;;29.80;33.50;;;;;;4916278;28;45978;-66
2022/07/27 14:41:42;;;;;;;3.55;0.73;;;29.80;33.50;;;;;;4929911;28;45256;-76
2022/07/27 14:44:07;;;;;;;2.35;0.90;;;29.80;33.30;;;;;;4916223;28;45317;-67
2022/07/27 14:46:33;;;;;;;1.35;0.80;;;29.80;33.20;;;;;;4915499;28;45660;-64
2022/07/27 14:48:59;;;;;;;1.83;0.80;;;29.80;33.20;;;;;;4936029;28;46103;-66
2022/07/27 14:51:24;;;;;;;2.70;0.80;;;29.80;33.20;;;;;;4931409;28;45151;-66
2022/07/27 14:53:50;;;;;;;2.33;0.73;;;29.80;33.00;;;;;;4935850;28;45094;-64
2022/07/27 14:56:16;;;;;;;5.38;0.80;;;29.80;33.00;;;;;;4930320;28;45275;-64
2022/07/27 14:58:42;;;;;;;2.25;0.70;;;29.80;32.90;;;;;;4932919;28;46191;-64
2022/07/27 15:01:07;;;;;;;1.88;0.80;;;29.80;33.00;;;;;;4930952;28;45003;-66
2022/07/27 15:03:33;;;;;;;3.78;0.75;;;29.80;33.00;;;;;;4932234;28;45460;-64
2022/07/27 15:05:58;;;;;;;2.72;0.82;;;29.80;32.80;;;;;;4935158;28;44991;-66
2022/07/27 15:08:24;;;;;;;4.55;0.73;;;29.80;32.70;;;;;;4937148;28;46350;-73
2022/07/27 15:10:49;;;;;;;4.88;0.90;;;29.80;32.70;;;;;;4919424;28;45363;-71
2022/07/27 15:13:15;;;;;;;1.63;0.70;;;29.80;32.60;;;;;;4934671;28;45533;-61
2022/07/27 15:15:41;;;;;;;3.53;1.25;;;29.80;32.60;;;;;;4937891;28;45072;-66
2022/07/27 15:18:07;;;;;;;2.88;1.27;;;29.90;32.50;;;;;;4919416;28;45293;-65
2022/07/27 15:20:33;;;;;;;3.50;1.10;;;29.90;32.30;;;;;;4933945;28;45176;-64
2022/07/27 15:22:58;;;;;;;1.60;0.70;;;29.90;32.30;;;;;;4938296;28;45640;-64
2022/07/27 15:25:24;;;;;;;3.60;0.93;;;29.90;32.20;;;;;;4936997;28;44763;-66
2022/07/27 15:27:50;;;;;;;1.48;1.00;;;29.80;32.10;;;;;;4936091;28;45171;-67
2022/07/27 15:30:15;;;;;;;3.08;0.60;;;29.90;32.20;;;;;;4935830;28;45198;-67
2022/07/27 15:32:41;;;;;;;2.30;0.80;;;29.90;32.20;;;;;;4933351;28;45409;-65
2022/07/27 15:35:07;;;;;;;2.38;0.73;;;29.90;32.10;;;;;;4934064;28;44941;-67
2022/07/27 15:37:32;;;;;;;6.15;0.63;;;29.90;31.90;;;;;;4920356;28;46344;-65
2022/07/27 15:40:35;;;;;;;1.08;0.85;;;29.80;31.90;;;;;;4935578;28;45279;-67
2022/07/27 15:42:44;;;;;;;1.73;1.00;;;29.80;31.80;;;;;;4916700;28;45258;-67
2022/07/27 15:45:10;;;;;;;3.55;1.00;;;29.80;31.80;;;;;;4934693;28;45421;-67
2022/07/27 15:47:36;;;;;;;2.80;0.70;;;29.80;31.80;;;;;;4935084;28;45008;-66
2022/07/27 15:50:02;;;;;;;3.83;0.65;;;29.80;31.70;;;;;;4938190;28;45680;-66
2022/07/27 15:52:28;;;;;;;1.38;1.00;;;29.80;31.80;;;;;;4934450;28;45570;-65
2022/07/27 15:54:53;;;;;;;2.85;1.20;;;29.80;31.80;;;;;;4907677;28;45427;-66